Time;durP1;ratioP1;P1;durP2;ratioP2;P2;SDS_P1;SDS_P2;PMS_P1;PMS_P2;Temp;Humidity;BMP_temperature;BMP_pressure;BME280_temperature;BME280_humidity;BME280_pressure;Samples;Min_cycle;Max_cycle;Signal;HPM_P1;HPM_P2
2023/06/01 00:02:27;;;;;;;11.30;6.97;;;16.70;99.90;;;16.89;76.75;95134.75;5069202;28;20455;-66
2023/06/01 00:04:54;;;;;;;12.30;6.10;;;16.60;99.90;;;16.85;76.88;95128.91;5068809;28;20552;-55
2023/06/01 00:07:23;;;;;;;13.17;7.20;;;16.60;99.90;;;16.82;77.10;95127.44;5070066;28;20521;-66
2023/06/01 00:09:51;;;;;;;9.30;7.40;;;16.60;99.90;;;16.79;77.12;95122.47;5071483;28;20535;-66
2023/06/01 00:12:18;;;;;;;9.83;6.63;;;16.60;99.90;;;16.77;77.15;95123.66;5067344;28;20459;-54
2023/06/01 00:14:46;;;;;;;13.40;7.70;;;16.50;99.90;;;16.74;77.25;95116.03;5071786;28;20528;-55
2023/06/01 00:17:14;;;;;;;14.33;9.17;;;16.50;99.90;;;16.72;77.83;95112.72;5069151;28;20606;-53
2023/06/01 00:19:43;;;;;;;12.27;8.53;;;16.50;99.90;;;16.68;78.21;95117.53;5067124;28;20483;-55
2023/06/01 00:22:10;;;;;;;9.90;7.93;;;16.40;99.90;;;16.64;77.91;95116.22;5074088;28;20515;-54
2023/06/01 00:24:38;;;;;;;16.30;8.60;;;16.40;99.90;;;16.60;78.21;95114.91;5068608;28;20646;-66
2023/06/01 00:27:06;;;;;;;16.40;7.83;;;16.40;99.90;;;16.54;77.96;95110.28;5074790;28;20509;-62
2023/06/01 00:29:33;;;;;;;8.20;7.07;;;16.30;99.90;;;16.51;78.73;95115.94;5067732;28;21005;-66
2023/06/01 00:32:02;;;;;;;14.27;8.37;;;16.30;99.90;;;16.47;78.60;95118.09;5071769;28;20458;-66
2023/06/01 00:34:29;;;;;;;11.87;8.77;;;16.30;99.90;;;16.42;78.81;95118.63;5072593;28;20475;-59
2023/06/01 00:36:56;;;;;;;11.60;8.43;;;16.20;99.90;;;16.41;78.36;95119.59;5076149;28;20622;-65
2023/06/01 00:39:24;;;;;;;13.23;8.87;;;16.20;99.90;;;16.41;78.58;95116.94;5077824;28;20868;-55
2023/06/01 00:41:51;;;;;;;11.63;8.60;;;16.20;99.90;;;16.42;78.81;95123.06;5077231;28;20521;-55
2023/06/01 00:44:18;;;;;;;9.17;8.27;;;16.20;99.90;;;16.43;78.88;95120.25;5079549;28;20571;-54
2023/06/01 00:46:45;;;;;;;16.60;7.93;;;16.20;99.90;;;16.44;78.93;95121.09;5075721;28;20461;-65
2023/06/01 00:49:14;;;;;;;8.80;7.90;;;16.20;99.90;;;16.46;78.91;95125.22;5077277;28;20908;-66
2023/06/01 00:51:41;;;;;;;8.80;7.90;;;16.20;99.90;;;16.47;78.85;95120.75;5078819;28;20458;-68
2023/06/01 00:54:09;;;;;;;12.90;8.83;;;16.20;99.90;;;16.47;79.12;95123.41;5080967;28;20482;-53
2023/06/01 00:56:36;;;;;;;13.30;9.27;;;16.20;99.90;;;16.47;79.19;95118.91;5077418;28;20486;-66
2023/06/01 00:59:03;;;;;;;12.47;10.80;;;16.20;99.90;;;16.45;78.90;95112.97;5076085;28;20479;-67
2023/06/01 01:01:31;;;;;;;12.80;10.50;;;16.20;99.90;;;16.45;79.26;95120.94;5077704;28;20467;-56
2023/06/01 01:04:00;;;;;;;16.00;11.03;;;16.20;99.90;;;16.46;79.23;95125.22;5080453;28;20534;-66
2023/06/01 01:06:41;;;;;;;16.10;11.47;;;16.20;99.90;;;16.46;79.28;95124.41;5077988;28;20532;-53
2023/06/01 01:09:22;;;;;;;18.87;12.60;;;16.20;99.90;;;16.46;79.24;95119.91;5076651;28;21040;-67
2023/06/01 01:12:00;;;;;;;18.03;13.47;;;16.20;99.90;;;16.45;79.22;95128.03;5075933;28;20446;-56
2023/06/01 01:14:33;;;;;;;20.43;14.47;;;16.20;99.90;;;16.43;78.93;95125.56;5079814;28;20569;-56
2023/06/01 01:17:03;;;;;;;23.33;16.03;;;16.20;99.90;;;16.44;79.23;95132.53;5074594;28;20563;-67
2023/06/01 01:19:54;;;;;;;22.60;14.87;;;16.20;99.90;;;16.44;79.15;95129.88;5076129;28;20482;-56
2023/06/01 01:23:04;;;;;;;22.53;15.73;;;16.20;99.90;;;16.45;79.39;95126.25;5079992;28;20458;-67
2023/06/01 01:26:11;;;;;;;22.33;15.13;;;16.20;99.90;;;16.46;79.56;95133.19;5076803;28;20529;-65
2023/06/01 01:28:43;;;;;;;22.00;16.93;;;16.20;99.90;;;16.47;79.26;95128.72;5068729;28;20834;-54
2023/06/01 01:31:12;;;;;;;23.40;15.10;;;16.20;99.90;;;16.47;79.08;95129.53;5076580;28;20451;-56
2023/06/01 01:33:40;;;;;;;27.13;15.73;;;16.20;99.90;;;16.48;79.31;95125.91;5075267;28;20656;-55
2023/06/01 01:36:08;;;;;;;22.93;14.37;;;16.20;99.90;;;16.50;78.85;95120.41;5075624;28;20526;-66
2023/06/01 01:38:36;;;;;;;22.60;15.43;;;16.30;99.90;;;16.50;78.67;95120.41;5082450;28;20506;-56
2023/06/01 01:41:03;;;;;;;21.37;14.90;;;16.30;99.90;;;16.51;78.95;95122.06;5079157;28;20454;-64
2023/06/01 01:43:30;;;;;;;25.60;16.57;;;16.30;99.90;;;16.52;78.51;95123.72;5074351;28;20557;-66
2023/06/01 01:46:06;;;;;;;32.80;18.43;;;16.30;99.90;;;16.46;78.42;95127.88;5077990;28;20459;-53
2023/06/01 01:48:41;;;;;;;32.33;17.23;;;16.30;99.90;;;16.40;78.28;95125.91;5070222;28;20630;-54
2023/06/01 01:51:11;;;;;;;24.37;15.47;;;16.20;99.90;;;16.35;78.53;95130.91;5076012;28;20522;-66
2023/06/01 01:53:39;;;;;;;26.80;17.27;;;16.10;99.90;;;16.31;79.05;95132.22;5075106;28;20924;-65
2023/06/01 01:56:06;;;;;;;27.70;17.00;;;16.10;99.90;;;16.27;79.01;95138.88;5071894;28;20540;-55
2023/06/01 01:58:34;;;;;;;23.50;15.53;;;16.10;99.90;;;16.25;79.16;95132.91;5069595;28;20539;-57
2023/06/01 02:01:03;;;;;;;22.33;15.47;;;16.00;99.90;;;16.24;79.26;95125.94;5074404;28;20457;-64
2023/06/01 02:03:30;;;;;;;18.40;14.70;;;16.00;99.90;;;16.24;79.44;95128.59;5071232;28;20501;-65
2023/06/01 02:05:57;;;;;;;28.03;16.90;;;16.00;99.90;;;16.23;79.73;95127.75;5070714;28;20458;-65
2023/06/01 02:08:24;;;;;;;27.70;17.07;;;16.00;99.90;;;16.21;79.03;95127.09;5071516;28;20483;-54
2023/06/01 02:10:52;;;;;;;24.83;17.00;;;16.00;99.90;;;16.20;79.73;95122.78;5073801;28;20504;-65
2023/06/01 02:13:19;;;;;;;28.13;17.73;;;16.00;99.90;;;16.22;79.91;95127.91;5071645;28;20455;-63
2023/06/01 02:15:46;;;;;;;23.50;16.77;;;16.00;99.90;;;16.24;79.92;95141.88;5076612;28;20451;-65
2023/06/01 02:18:15;;;;;;;28.00;18.70;;;16.00;99.90;;;16.24;80.15;95137.38;5074494;28;21319;-53
2023/06/01 02:20:43;;;;;;;53.20;19.10;;;16.00;99.90;;;16.24;80.03;95132.06;5079883;28;20450;-56
2023/06/01 02:23:10;;;;;;;29.23;17.77;;;16.00;99.90;;;16.22;79.81;95136.72;5076433;28;20513;-66
2023/06/01 02:25:37;;;;;;;29.37;18.67;;;16.00;99.90;;;16.24;79.93;95142.69;5075449;28;20455;-65
2023/06/01 02:28:07;;;;;;;24.60;17.37;;;16.00;99.90;;;16.26;79.78;95135.38;5075901;28;20458;-55
2023/06/01 02:30:34;;;;;;;32.17;18.50;;;16.00;99.90;;;16.28;79.81;95135.22;5073076;28;20483;-55
2023/06/01 02:33:01;;;;;;;29.70;19.13;;;16.00;99.90;;;16.32;80.07;95139.19;5075588;28;20454;-54
2023/06/01 02:35:30;;;;;;;26.97;17.57;;;16.10;99.90;;;16.33;80.03;95138.22;5080420;28;20485;-53
2023/06/01 02:37:57;;;;;;;37.10;21.20;;;16.10;99.90;;;16.36;79.90;95140.53;5072375;28;20601;-65
2023/06/01 02:40:24;;;;;;;43.83;21.03;;;16.10;99.90;;;16.37;79.98;95136.84;5076518;28;20514;-55
2023/06/01 02:42:52;;;;;;;50.93;21.50;;;16.10;99.90;;;16.39;79.52;95134.88;5077698;28;20512;-66
2023/06/01 02:45:19;;;;;;;38.73;23.70;;;16.10;99.90;;;16.42;79.66;95144.31;5073781;28;20585;-56
2023/06/01 02:47:47;;;;;;;36.80;23.10;;;16.20;99.90;;;16.42;79.61;95150.47;5071191;28;20455;-56
2023/06/01 02:50:14;;;;;;;40.23;23.87;;;16.20;99.90;;;16.44;79.67;95143.16;5072726;28;20474;-65
2023/06/01 02:52:43;;;;;;;39.70;24.30;;;16.20;99.90;;;16.46;79.61;95146.47;5070883;28;20470;-54
2023/06/01 02:55:11;;;;;;;42.67;25.00;;;16.20;99.90;;;16.44;79.28;95143.16;5069594;28;20471;-65
2023/06/01 02:57:38;;;;;;;46.80;25.50;;;16.20;99.90;;;16.44;78.99;95139.69;5072663;28;21017;-66
2023/06/01 03:00:15;;;;;;;43.60;25.53;;;16.20;99.90;;;16.45;79.44;95147.47;5070442;28;20478;-66
2023/06/01 03:02:42;;;;;;;44.10;25.50;;;16.20;99.90;;;16.45;79.26;95134.19;5076074;28;20473;-58
2023/06/01 03:05:12;;;;;;;42.27;27.03;;;16.20;99.90;;;16.44;79.09;95137.03;5073333;28;20471;-65
2023/06/01 03:07:41;;;;;;;39.53;24.00;;;16.20;99.90;;;16.44;79.41;95137.84;5076445;28;20843;-65
2023/06/01 03:10:09;;;;;;;38.27;24.77;;;16.20;99.90;;;16.45;79.15;95142.16;5068753;28;20467;-53
2023/06/01 03:12:36;;;;;;;45.67;28.33;;;16.20;99.90;;;16.46;79.06;95141.16;5071509;28;20451;-64
2023/06/01 03:15:04;;;;;;;43.70;25.63;;;16.20;99.90;;;16.47;79.05;95144.66;5073288;28;20628;-64
2023/06/01 03:17:33;;;;;;;44.63;27.80;;;16.20;99.90;;;16.49;79.06;95147.97;5072525;28;20489;-66
2023/06/01 03:20:00;;;;;;;39.13;24.43;;;16.20;99.90;;;16.51;78.93;95147.78;5067997;28;20498;-63
2023/06/01 03:22:27;;;;;;;45.47;27.30;;;16.20;99.90;;;16.51;79.04;95147.78;5073833;28;20500;-55
2023/06/01 03:24:57;;;;;;;47.57;27.73;;;16.30;99.90;;;16.52;78.83;95146.81;5073647;28;20503;-65
2023/06/01 03:27:24;;;;;;;39.97;25.90;;;16.30;99.90;;;16.50;78.72;95146.97;5071049;28;20461;-64
2023/06/01 03:29:52;;;;;;;62.17;25.77;;;16.30;99.90;;;16.47;78.82;95150.78;5073222;28;21243;-63
2023/06/01 03:32:19;;;;;;;46.33;26.40;;;16.20;99.90;;;16.45;78.80;95144.81;5070944;28;20960;-63
2023/06/01 03:34:46;;;;;;;45.23;26.17;;;16.20;99.90;;;16.45;79.00;95139.50;5069489;28;20487;-55
2023/06/01 03:37:13;;;;;;;41.20;24.00;;;16.20;99.90;;;16.46;78.95;95151.78;5073640;28;20896;-62
2023/06/01 03:39:41;;;;;;;38.03;18.43;;;16.20;99.90;;;16.48;79.02;95147.13;5070515;28;20943;-56
2023/06/01 03:42:10;;;;;;;31.83;18.83;;;16.30;99.90;;;16.53;79.06;95151.09;5071992;28;20540;-57
2023/06/01 03:44:37;;;;;;;41.97;18.90;;;16.30;99.90;;;16.58;79.48;95148.78;5069269;28;20535;-55
2023/06/01 03:47:04;;;;;;;37.60;19.20;;;16.30;99.90;;;16.64;79.09;95148.91;5071109;28;20500;-55
2023/06/01 03:49:32;;;;;;;35.10;18.20;;;16.40;99.90;;;16.70;78.78;95160.69;5079751;28;20539;-64
2023/06/01 03:51:59;;;;;;;40.73;19.70;;;16.40;99.90;;;16.74;78.81;95156.69;5076011;28;20963;-64
2023/06/01 03:54:26;;;;;;;40.97;20.30;;;16.50;99.90;;;16.78;78.69;95160.66;5071994;28;20520;-62
2023/06/01 03:56:54;;;;;;;41.50;19.00;;;16.50;99.90;;;16.80;78.28;95158.66;5069785;28;20571;-55
2023/06/01 03:59:24;;;;;;;53.27;22.60;;;16.50;99.90;;;16.80;77.75;95158.66;5068762;28;20478;-55
2023/06/01 04:01:51;;;;;;;49.80;21.00;;;16.60;99.90;;;16.82;77.98;95161.13;5071184;28;20540;-64
2023/06/01 04:04:18;;;;;;;43.37;20.13;;;16.60;99.90;;;16.81;78.02;95164.81;5073840;28;20556;-64
2023/06/01 04:06:46;;;;;;;46.37;21.00;;;16.60;99.90;;;16.80;77.61;95157.84;5069653;28;20818;-63
2023/06/01 04:09:14;;;;;;;51.30;22.13;;;16.60;99.90;;;16.78;77.57;95152.69;5073375;28;20471;-54
2023/06/01 04:11:41;;;;;;;43.07;21.70;;;16.60;99.90;;;16.78;77.69;95163.31;5070376;28;20874;-56
2023/06/01 04:14:09;;;;;;;45.33;19.00;;;16.50;99.90;;;16.76;78.25;95165.31;5073264;28;20983;-55
2023/06/01 04:16:37;;;;;;;33.57;18.07;;;16.50;99.90;;;16.76;77.29;95167.13;5068702;28;20623;-64
2023/06/01 04:19:05;;;;;;;29.50;17.17;;;16.50;99.90;;;16.74;77.74;95174.47;5072597;28;20471;-62
2023/06/01 04:21:32;;;;;;;41.97;21.07;;;16.50;99.90;;;16.72;77.84;95174.63;5074850;28;20539;-54
2023/06/01 04:23:59;;;;;;;40.60;21.17;;;16.50;99.90;;;16.73;78.14;95170.97;5072128;28;21017;-67
2023/06/01 04:26:27;;;;;;;48.40;19.77;;;16.50;99.90;;;16.72;78.17;95168.50;5071295;28;20788;-57
2023/06/01 04:28:56;;;;;;;46.63;19.50;;;16.50;99.90;;;16.69;78.20;95167.00;5070636;28;21058;-55
2023/06/01 04:31:24;;;;;;;49.37;21.70;;;16.50;99.90;;;16.65;78.21;95165.66;5067283;28;20457;-54
2023/06/01 04:33:53;;;;;;;45.47;19.20;;;16.40;99.90;;;16.65;78.22;95170.97;5069031;28;20474;-53
2023/06/01 04:36:22;;;;;;;52.90;20.37;;;16.40;99.90;;;16.66;78.11;95175.31;5067732;28;20455;-62
2023/06/01 04:38:52;;;;;;;38.97;18.40;;;16.40;99.90;;;16.68;78.13;95175.94;5069387;28;20502;-64
2023/06/01 04:41:21;;;;;;;35.23;19.17;;;16.40;99.90;;;16.71;78.29;95180.94;5068186;28;20474;-63
2023/06/01 04:43:51;;;;;;;34.93;19.03;;;16.50;99.90;;;16.71;78.41;95183.59;5073421;28;20482;-53
2023/06/01 04:46:20;;;;;;;31.00;17.90;;;16.50;99.90;;;16.71;78.03;95180.94;5074799;28;20484;-67
2023/06/01 04:48:48;;;;;;;36.53;20.23;;;16.50;99.90;;;16.72;77.93;95187.91;5073039;28;20529;-65
2023/06/01 04:51:19;;;;;;;29.57;18.20;;;16.50;99.90;;;16.72;77.81;95192.41;5073148;28;20454;-54
2023/06/01 04:53:49;;;;;;;39.47;19.27;;;16.50;99.90;;;16.72;78.35;95187.91;5071334;28;20471;-54
2023/06/01 04:56:19;;;;;;;37.43;20.87;;;16.50;99.90;;;16.72;78.20;95193.22;5069536;28;20486;-53
2023/06/01 04:58:47;;;;;;;33.90;19.80;;;16.50;99.90;;;16.74;78.20;95190.41;5069996;28;20979;-54
2023/06/01 05:01:15;;;;;;;32.33;18.50;;;16.50;99.90;;;16.77;78.12;95188.22;5072663;28;20457;-63
2023/06/01 05:03:43;;;;;;;51.17;19.03;;;16.50;99.90;;;16.81;77.81;95191.38;5067546;28;20503;-55
2023/06/01 05:06:12;;;;;;;33.90;19.23;;;16.60;99.90;;;16.88;77.59;95184.41;5078675;28;20542;-65
2023/06/01 05:08:41;;;;;;;37.87;19.03;;;16.60;99.90;;;16.98;77.89;95186.88;5071771;28;20546;-65
2023/06/01 05:11:09;;;;;;;30.67;18.23;;;16.70;99.90;;;17.06;77.31;95186.03;5075472;28;20496;-65
2023/06/01 05:13:36;;;;;;;34.67;19.17;;;16.80;99.90;;;17.13;77.34;95185.13;5070212;28;20475;-64
2023/06/01 05:16:04;;;;;;;31.30;20.03;;;16.90;99.90;;;17.22;76.91;95198.41;5069769;28;20454;-55
2023/06/01 05:18:32;;;;;;;43.50;20.67;;;16.90;99.90;;;17.27;76.42;95186.22;5075526;28;20490;-64
2023/06/01 05:20:59;;;;;;;35.67;21.33;;;17.00;99.90;;;17.32;76.79;95197.19;5071354;28;20504;-64
2023/06/01 05:23:26;;;;;;;34.80;20.17;;;17.10;99.90;;;17.37;76.52;95189.50;5073602;28;20451;-54
2023/06/01 05:26:01;;;;;;;34.03;18.87;;;17.10;99.90;;;17.44;76.02;95192.28;5080764;28;20458;-63
2023/06/01 05:28:30;;;;;;;45.03;21.37;;;17.10;99.90;;;17.49;75.71;95189.13;5073612;28;20466;-63
2023/06/01 05:30:57;;;;;;;35.00;20.47;;;17.20;99.90;;;17.56;75.99;95190.91;5079394;28;20831;-56
2023/06/01 05:33:25;;;;;;;38.23;21.30;;;17.30;99.90;;;17.64;75.73;95191.88;5074004;28;20868;-64
2023/06/01 05:35:53;;;;;;;34.43;19.90;;;17.40;99.90;;;17.69;75.41;95193.00;5076485;28;20469;-63
2023/06/01 05:38:20;;;;;;;32.33;20.43;;;17.40;99.90;;;17.77;75.03;95192.13;5075411;28;20522;-56
2023/06/01 05:40:47;;;;;;;40.73;21.63;;;17.50;99.90;;;17.83;75.24;95191.41;5073816;28;20524;-56
2023/06/01 05:43:16;;;;;;;44.57;22.97;;;17.60;99.90;;;17.91;74.71;95203.88;5080432;28;20946;-59
2023/06/01 05:45:43;;;;;;;36.87;21.53;;;17.60;99.90;;;17.96;74.73;95190.84;5076554;28;20438;-65
2023/06/01 05:48:13;;;;;;;42.27;23.07;;;17.70;99.90;;;18.03;74.67;95190.97;5071323;28;20526;-56
2023/06/01 05:50:41;;;;;;;42.07;22.37;;;17.80;99.90;;;18.13;74.03;95190.75;5080821;28;20446;-62
2023/06/01 05:53:09;;;;;;;45.60;22.13;;;17.80;99.90;;;18.20;73.54;95197.84;5082708;28;20443;-56
2023/06/01 05:55:36;;;;;;;41.17;22.00;;;17.90;99.90;;;18.30;73.97;95196.75;5077321;28;20453;-55
2023/06/01 05:58:04;;;;;;;35.83;21.30;;;18.00;99.90;;;18.36;73.48;95196.03;5076476;28;20904;-64
2023/06/01 06:00:34;;;;;;;34.53;22.10;;;18.10;99.90;;;18.43;73.17;95199.63;5077170;28;20533;-55
2023/06/01 06:03:02;;;;;;;40.37;23.53;;;18.10;99.90;;;18.50;73.57;95191.72;5075629;28;20900;-53
2023/06/01 06:05:29;;;;;;;41.17;23.00;;;18.20;99.90;;;18.58;72.98;95199.66;5077897;28;20500;-77
2023/06/01 06:07:56;;;;;;;38.50;22.33;;;18.30;99.90;;;18.63;72.42;95200.75;5077354;28;20447;-56
2023/06/01 06:10:23;;;;;;;44.83;23.67;;;18.30;99.90;;;18.71;72.62;95199.03;5076664;28;21032;-56
2023/06/01 06:12:51;;;;;;;43.00;24.00;;;18.40;99.90;;;18.76;72.22;95202.81;5074273;28;20477;-64
2023/06/01 06:15:19;;;;;;;49.20;24.50;;;18.50;99.90;;;18.84;72.29;95201.91;5082436;28;20466;-65
2023/06/01 06:17:47;;;;;;;38.43;24.17;;;18.50;99.90;;;18.96;71.91;95202.28;5073879;28;20489;-56
2023/06/01 06:20:15;;;;;;;40.17;23.40;;;18.60;99.90;;;19.06;71.81;95196.69;5071208;28;20469;-64
2023/06/01 06:22:42;;;;;;;39.00;23.53;;;18.70;99.90;;;19.17;71.45;95204.22;5072926;28;20455;-53
2023/06/01 06:25:11;;;;;;;35.33;22.20;;;18.80;99.90;;;19.40;71.44;95203.28;5071103;28;21040;-68
2023/06/01 06:27:38;;;;;;;42.90;23.90;;;19.00;99.90;;;19.74;71.13;95199.16;5074257;28;20487;-55
2023/06/01 06:30:08;;;;;;;46.00;22.53;;;19.30;99.90;;;20.04;70.10;95200.72;5072496;28;20467;-55
2023/06/01 06:32:35;;;;;;;39.20;23.37;;;19.60;99.90;;;20.34;69.40;95197.94;5068994;28;21411;-54
2023/06/01 06:35:05;;;;;;;36.80;23.23;;;19.90;99.90;;;20.68;69.02;95199.06;5076250;28;20852;-56
2023/06/01 06:37:32;;;;;;;29.87;20.03;;;20.20;99.90;;;21.04;68.49;95199.91;5073289;28;20450;-65
2023/06/01 06:39:59;;;;;;;32.77;21.03;;;20.50;99.90;;;21.29;67.65;95198.38;5072763;28;20481;-67
2023/06/01 06:42:27;;;;;;;38.37;22.47;;;20.80;99.90;;;21.44;66.42;95195.56;5072525;28;20446;-53
2023/06/01 06:44:56;;;;;;;34.47;21.13;;;21.00;99.90;;;21.46;65.58;95193.53;5072172;28;20485;-55
2023/06/01 06:47:24;;;;;;;31.47;21.37;;;21.10;99.90;;;21.42;65.34;95197.59;5071440;28;20493;-65
2023/06/01 06:49:52;;;;;;;30.77;21.37;;;21.10;99.90;;;21.38;65.56;95196.38;5069720;28;20501;-55
2023/06/01 06:52:20;;;;;;;40.77;22.93;;;21.00;99.90;;;21.45;65.98;95193.72;5076127;28;20994;-65
2023/06/01 06:54:48;;;;;;;33.80;23.10;;;21.10;99.90;;;21.56;64.89;95193.16;5070296;28;20605;-66
2023/06/01 06:57:15;;;;;;;35.93;22.60;;;21.20;99.90;;;21.71;65.19;95187.66;5071762;28;20458;-66
2023/06/01 06:59:44;;;;;;;33.47;23.23;;;21.30;99.90;;;21.93;65.19;95198.22;5080344;28;20497;-53
2023/06/01 07:02:11;;;;;;;37.20;26.33;;;21.50;99.90;;;22.10;62.76;95202.16;5070657;28;20459;-56
2023/06/01 07:04:40;;;;;;;35.30;22.93;;;21.60;99.90;;;22.27;63.61;95199.94;5070581;28;20474;-65
2023/06/01 07:07:07;;;;;;;34.40;22.77;;;21.80;99.90;;;22.42;62.33;95194.41;5072465;28;20447;-65
2023/06/01 07:09:36;;;;;;;36.10;24.37;;;21.90;99.90;;;22.55;62.65;95196.25;5075577;28;20469;-65
2023/06/01 07:12:03;;;;;;;39.70;23.57;;;22.10;99.90;;;22.56;62.38;95193.38;5072698;28;20442;-55
2023/06/01 07:14:31;;;;;;;38.93;21.83;;;22.10;99.90;;;22.52;62.78;95188.63;5074400;28;20474;-52
2023/06/01 07:16:58;;;;;;;33.53;22.40;;;22.10;99.90;;;22.45;62.84;95190.47;5071194;28;20450;-55
2023/06/01 07:19:32;;;;;;;34.23;21.30;;;22.10;99.90;;;22.42;62.79;95193.56;5073701;28;20508;-65
2023/06/01 07:22:00;;;;;;;32.00;22.50;;;22.00;99.90;;;22.52;62.35;95194.00;5075758;28;20783;-65
2023/06/01 07:24:28;;;;;;;31.03;22.20;;;22.10;99.90;;;22.66;63.03;95190.28;5073536;28;20582;-64
2023/06/01 07:26:57;;;;;;;36.57;22.00;;;22.20;99.90;;;22.91;61.82;95189.63;5075042;28;20539;-66
2023/06/01 07:29:26;;;;;;;32.87;20.90;;;22.40;99.90;;;23.12;62.17;95188.59;5071243;28;20467;-64
2023/06/01 07:31:53;;;;;;;32.80;18.40;;;22.60;99.90;;;23.40;60.20;95179.44;5081077;28;20462;-55
2023/06/01 07:34:21;;;;;;;29.77;19.40;;;22.90;99.90;;;23.62;60.98;95182.63;5069499;28;20481;-64
2023/06/01 07:36:50;;;;;;;30.63;18.00;;;23.10;99.90;;;23.82;59.66;95179.84;5073778;28;20457;-58
2023/06/01 07:39:17;;;;;;;23.50;18.00;;;23.30;99.90;;;24.01;59.27;95174.59;5070743;28;20502;-65
2023/06/01 07:41:46;;;;;;;28.30;19.50;;;23.50;99.90;;;24.21;59.71;95171.78;5076301;28;20945;-55
2023/06/01 07:44:18;;;;;;;25.53;17.60;;;23.70;99.90;;;24.39;58.89;95168.34;5070468;28;20478;-65
2023/06/01 07:46:45;;;;;;;30.90;18.83;;;23.90;99.90;;;24.58;58.54;95172.75;5071404;28;20983;-57
2023/06/01 07:49:13;;;;;;;31.43;19.43;;;24.10;99.90;;;24.74;57.66;95160.66;5069221;28;20872;-56
2023/06/01 07:51:41;;;;;;;31.07;18.40;;;24.30;99.90;;;25.01;56.29;95165.75;5076054;28;20520;-65
2023/06/01 07:54:08;;;;;;;31.90;18.07;;;24.50;99.30;;;25.24;56.86;95159.72;5068140;28;20478;-65
2023/06/01 07:56:35;;;;;;;27.43;17.60;;;24.70;99.60;;;25.43;55.16;95155.16;5073669;28;20510;-66
2023/06/01 07:59:03;;;;;;;25.13;17.23;;;24.90;98.50;;;25.52;56.33;95155.69;5068477;28;20502;-65
2023/06/01 08:01:32;;;;;;;29.50;19.00;;;25.10;98.40;;;25.52;54.24;95156.50;5072061;28;20548;-55
2023/06/01 08:04:01;;;;;;;26.30;18.50;;;25.10;97.30;;;25.50;55.60;95157.75;5070697;28;20466;-65
2023/06/01 08:06:35;;;;;;;23.10;17.83;;;25.10;97.90;;;25.53;55.29;95155.47;5073483;28;20853;-55
2023/06/01 08:09:02;;;;;;;22.70;16.37;;;25.10;97.90;;;25.56;55.84;95156.84;5072159;28;20504;-55
2023/06/01 08:11:30;;;;;;;24.00;16.80;;;25.10;97.90;;;25.57;55.41;95155.81;5070888;28;20871;-56
2023/06/01 08:13:59;;;;;;;25.20;16.70;;;25.10;97.80;;;25.64;55.41;95148.50;5073255;28;20466;-64
2023/06/01 08:16:27;;;;;;;30.50;15.77;;;25.20;97.70;;;25.81;55.44;95154.06;5071398;28;20454;-55
2023/06/01 08:18:56;;;;;;;24.27;16.40;;;25.40;97.70;;;26.06;55.30;95151.25;5072946;28;20525;-64
2023/06/01 08:21:24;;;;;;;30.07;17.90;;;25.60;97.60;;;26.31;54.67;95152.94;5070382;28;21045;-55
2023/06/01 08:23:52;;;;;;;29.40;17.20;;;25.80;97.20;;;26.50;54.42;95150.97;5076338;28;21117;-56
2023/06/01 08:26:20;;;;;;;29.90;18.50;;;26.00;96.90;;;26.65;53.45;95137.03;5068387;28;20501;-57
2023/06/01 08:28:51;;;;;;;27.33;17.23;;;26.20;96.20;;;26.78;53.22;95130.59;5074403;28;20545;-55
2023/06/01 08:31:19;;;;;;;20.20;15.13;;;26.30;95.60;;;26.89;52.94;95137.06;5067339;28;20831;-67
2023/06/01 08:33:46;;;;;;;22.50;17.50;;;26.40;95.60;;;27.05;51.89;95136.34;5067988;28;20976;-65
2023/06/01 08:36:15;;;;;;;31.67;17.23;;;26.50;94.80;;;27.17;48.91;95129.06;5067456;28;21022;-64
2023/06/01 08:38:42;;;;;;;26.70;15.57;;;26.60;92.10;;;27.24;51.37;95125.41;5073655;28;20501;-66
2023/06/01 08:41:19;;;;;;;27.77;19.43;;;26.80;93.90;;;27.32;50.99;95135.84;5071252;28;20458;-56
2023/06/01 08:43:49;;;;;;;24.77;16.40;;;26.90;93.70;;;27.24;50.47;95133.50;5074252;28;20548;-58
2023/06/01 08:46:17;;;;;;;19.73;14.43;;;26.80;92.50;;;27.17;50.91;95120.97;5073575;28;20475;-64
2023/06/01 08:48:44;;;;;;;22.50;17.73;;;26.80;92.70;;;27.26;50.74;95123.28;5072210;28;21008;-57
2023/06/01 08:51:11;;;;;;;25.03;17.73;;;26.80;92.60;;;27.26;50.73;95110.59;5073967;28;20511;-64
2023/06/01 08:53:42;;;;;;;18.77;15.33;;;26.80;92.30;;;27.22;50.92;95111.28;5073055;28;20473;-65
2023/06/01 08:56:09;;;;;;;21.70;15.40;;;26.70;92.40;;;27.35;50.87;95105.66;5071715;28;20434;-54
2023/06/01 08:58:37;;;;;;;24.90;16.43;;;26.80;92.70;;;27.65;51.08;95101.91;5078136;28;20545;-66
2023/06/01 09:01:05;;;;;;;23.40;14.60;;;27.00;92.60;;;28.01;49.98;95099.88;5075096;28;20541;-66
2023/06/01 09:03:32;;;;;;;35.23;16.33;;;27.40;92.40;;;28.23;48.47;95108.94;5077926;28;21032;-64
2023/06/01 09:05:59;;;;;;;27.20;15.47;;;27.70;91.00;;;28.07;49.49;95101.63;5075302;28;20823;-65
2023/06/01 09:08:27;;;;;;;20.97;13.77;;;27.60;90.80;;;28.12;48.92;95095.47;5072898;28;20478;-55
2023/06/01 09:10:55;;;;;;;23.53;15.30;;;27.60;90.70;;;28.29;49.25;95100.91;5073738;28;20455;-55
2023/06/01 09:13:33;;;;;;;20.03;14.97;;;27.70;90.60;;;28.43;48.95;95097.63;5072662;28;20454;-66
2023/06/01 09:16:01;;;;;;;22.40;14.33;;;27.90;90.20;;;28.54;48.34;95092.38;5077622;28;20449;-65
2023/06/01 09:18:29;;;;;;;21.63;12.70;;;28.00;90.20;;;28.73;48.67;95088.34;5074339;28;20482;-64
2023/06/01 09:20:59;;;;;;;29.23;16.50;;;28.20;89.60;;;29.01;48.38;95089.28;5074844;28;20465;-55
2023/06/01 09:23:26;;;;;;;18.73;13.03;;;28.50;89.50;;;29.20;48.19;95092.53;5079474;28;20511;-55
2023/06/01 09:26:06;;;;;;;21.63;14.40;;;28.60;89.00;;;29.47;46.66;95089.06;5076568;28;20468;-57
2023/06/01 09:28:58;;;;;;;23.17;12.37;;;28.80;87.30;;;29.72;46.17;95091.22;5075428;28;20297;-64
2023/06/01 09:31:37;;;;;;;26.13;13.00;;;29.10;85.00;;;29.85;44.73;95090.88;5076451;28;20200;-56
2023/06/01 09:34:04;;;;;;;15.23;10.80;;;29.30;82.00;;;29.75;45.47;95084.50;5076710;28;20540;-56
2023/06/01 09:36:33;;;;;;;17.83;10.43;;;29.30;80.90;;;29.63;45.40;95082.72;5072573;28;20279;-56
2023/06/01 09:39:05;;;;;;;40.83;19.60;;;29.20;80.70;;;29.68;45.26;95084.69;5077395;28;20235;-54
2023/06/01 09:42:06;;;;;;;46.40;22.27;;;29.10;79.70;;;29.63;43.28;95074.59;5074776;28;20294;-57
2023/06/01 09:44:35;;;;;;;14.90;9.50;;;29.10;77.40;;;29.58;44.83;95074.53;5017205;28;20222;-67
2023/06/01 09:47:03;;;;;;;24.30;12.20;;;29.10;78.40;;;29.48;44.71;95069.00;5063184;28;20200;-55
2023/06/01 09:49:31;;;;;;;14.37;9.10;;;29.00;77.60;;;29.38;44.08;95060.78;5078871;28;20337;-54
2023/06/01 09:52:12;;;;;;;15.67;8.60;;;28.80;77.20;;;29.35;44.16;95055.88;5074006;28;20453;-54
2023/06/01 09:54:41;;;;;;;11.53;7.90;;;28.80;77.20;;;29.54;44.63;95056.34;5077930;28;20232;-54
2023/06/01 09:57:10;;;;;;;16.53;8.77;;;28.90;76.60;;;29.76;43.81;95048.16;5076436;28;20274;-57
2023/06/01 09:59:42;;;;;;;10.80;8.00;;;29.10;75.40;;;30.02;43.30;95043.81;5075369;28;20329;-55
2023/06/01 10:02:13;;;;;;;9.73;7.00;;;29.40;74.90;;;30.26;43.11;95047.00;5074042;28;20269;-57
2023/06/01 10:04:42;;;;;;;12.37;7.73;;;29.70;74.40;;;30.41;42.20;95042.78;5074359;28;20276;-56
2023/06/01 10:07:11;;;;;;;9.20;7.00;;;29.80;73.10;;;30.46;42.00;95035.50;5075225;28;20211;-55
2023/06/01 10:09:38;;;;;;;10.60;6.17;;;29.90;71.40;;;30.54;41.20;95035.00;5071645;28;20596;-55
2023/06/01 10:12:07;;;;;;;16.10;8.40;;;30.00;69.90;;;30.51;41.51;95024.66;5071953;28;20254;-56
2023/06/01 10:14:37;;;;;;;10.93;6.40;;;30.00;69.30;;;30.60;39.86;95032.31;5074400;28;20224;-66
2023/06/01 10:17:05;;;;;;;14.03;8.80;;;30.10;67.30;;;30.70;41.17;95035.91;5069750;28;20686;-64